Fairfield, CT

10:21 PM EDT on May 29, 2017 (GMT -0400)
Southport Woods | | Change Station
Active Advisory: Coastal Flood Statement Active Notice: Coastal Flood Statement

Elev 50 ft 41.14 °N, 73.29 °W | Updated 4 minutes ago

Overcast
Overcast
55.2 °F
Feels Like 55.2 °F
N
0.0
Wind Variable Wind from SW

Today
High -- | Low -- °F
--% Chance of Precip.
Yesterday
High -- | Low -- °F
Precip. -- in
Pressure 30.10 in
Visibility 10.0 miles
Clouds Few 900 ft
Overcast 3100 ft
Dew Point 52 °F
Humidity 90%
Rainfall 0.10 in
Snow Depth Not available.
5:24 AM 8:17 PM
Waxing Crescent, 25% visible
METAR KBDR 300152Z 11005KT 10SM FEW009 OVC031 14/11 A3010 RMK AO2 SLP193 T01390111 $
Pressure 30.10 in
Visibility 10.0 miles
Clouds Few 900 ft
Overcast 3100 ft
Dew Point 52 °F
Humidity 90%
Rainfall 0.10 in
Snow Depth Not available.
5:24 AM 8:17 PM
Waxing Crescent, 25% visible
METAR KBDR 300152Z 11005KT 10SM FEW009 OVC031 14/11 A3010 RMK AO2 SLP193 T01390111 $

Get Your Daily Forecast Email!

Thanks for signing up!

Be on the lookout for a verification email in your inbox.

You'll start receiving severe weather alerts in your inbox..

×

10-Day Weather Forecast

Almanac

Astronomy

May. 29, 2017 Rise Set
Actual Time
Civil Twilight
Nautical Twilight
Astronomical Twilight
Moon
Length of Visible Light
Length of Day
Tomorrow will be .
, % of the Moon is Illuminated

Today's Extremes

State Highs State Lows

Community

WunderPhotos

Category 6

Welcome to Category 6. This is the collective home for Weather Underground's featured writeups by Dr. Jeff Masters (right), Bob Henson (left), Chris Burt, and other regular contributors.

Nearby

Air Quality

  Air Quality AQ Index Pollutant
Not available.

Snow Depth

Station Depth Elevation

Earthquake Activity

City Distance Mag. Time & Date
Minimum magnitude displayed is 2.5.

Coastal Water Temperatures

Place Temperature

Stations

Nearby Weather Stations

Station Location Temp. Windchill Dew Point Humidity Wind Precip. Elev Updated Type
                   

Watches & Warnings

Coastal Flood Statement
Issued: 8:25 PM EDT May. 29, 2017 – National Weather Service

* locations... northeast New Jersey... southern Westchester...
southern Fairfield... and the South Shore back bays of New York
City and Nassau County.

* Positive tidal departures... 1 to 1 1/2 ft.

* Timing... around the times of high tide tonight.

* Impacts... brief minor flooding of the most vulnerable Waterfront
and shoreline roads.


Jmc


825 PM EDT Mon may 29 2017

* locations... northeast New Jersey... southern Westchester...
southern Fairfield... and the South Shore back bays of New York
City and Nassau County.

* Positive tidal departures... 1 to 1 1/2 ft.

* Timing... around the times of high tide tonight.

* Impacts... brief minor flooding of the most vulnerable Waterfront
and shoreline roads.


Jmc